Airfield :
LOGIN :

Register | Disclaimer

   EN    FR    IT 

 










Legend :    VFR   Marginal VFR   IFR   Intensive IFR   Very Intensive IFR
Visi :
Ceiling :
>= 8 km
>= 3000ft
5 to 8 km
1000 to 3000 ft
1500m to 5 km
500 to 1000 ft
800 to 1500m
200 to 500 ft
< 800m
< 200 ft
Symbols :   Thunderstorms  Fog  Heavy snow  Heavy precipitations  Wind > 20 kt
SIGMETs :     Misc.  Thunderstorms  Icing  Turbulence  Mountain Waves  Volcanic Ashes







- Airport Elevation : 100 ft


EBDT - Schaffen

CURRENT METAR :
  • 200025Z AUTO 24005KT 5000 FEW006/// BKN055/// BKN100/// 16/15 Q1010 WHT

EXPIRED METARs :
  • 192355Z AUTO 22004KT 7000 FEW041/// SCT100/// BKN120/// 16/15 Q1010 WHT
  • 192325Z AUTO 24006KT 9999 FEW120/// SCT160/// BKN220/// 16/15 Q1010 BLU
  • 192255Z AUTO 23005KT 9999 FEW015/// BKN220/// 16/15 Q1009 BLU
  • 192225Z AUTO 21005KT 9999 FEW015/// BKN090/// BKN160/// 17/15 Q1009 BLU
  • 192155Z AUTO 20005KT 9999 SCT080/// BKN200/// 17/15 Q1009 BLU

TAF TAF EBDT
Valid from the 19 at 19:00 until the 20 at 07:00 UTC


191541Z 1919/2007 23008KT 9999 SCT030 BKN070
TEMPO 1919/2002 23009G27KT 6000 -SHRA FEW015 SCT018 BKN070
PROB40
TEMPO 1919/2002 VRB09G35KT 3000 TSRA SHRAGS SCT006 BKN014CB BKN050
BECMG 1923/2001 SCT012
BECMG 2005/2007 SCT023
No reported NOTAMs for that airfield.



MET'MAP, your aeronautical weather chart ! - Copyright ORBIFLY December 2007 - Disclaimer

ORBIFLY MET'MAP TEAM :

Programming & Development : Alexandra Zaïnal
Concept & Development : Baudouin d'Aumeries
Co-Development & Prog : Marc-Olivier Méhu
Technical & hardware support : Manuel Goepfert

Contact : metmap@orbifly.com




SOURCES & CREDITS :

   NOAA